Yemassee, SC

12:54 PM EDT on October 23, 2014 (GMT -0400)
RAWS SAVANNAH PORTABLE SC US | Change Station
CLOSE
Current Station
Personal Weather Station
Location: Yemassee, SC
Elevation: 6 ft
Nearby Weather Stations

Elev 6 ft 32.66 °N, 80.72 °W | Updated 31 minutes ago

Clear
Clear
66 °F
Feels Like 66 °F
N
4
Wind Variable Wind from ENE
Gusts 9.0 mph

Today
High -- | Low -- °F
--% Chance of Precip.
Yesterday
High -- | Low -- °F
Precip. -- in
7:33 AM 6:41 PM
Waning Crescent, 0% visible
Pressure 30.10 in
Visibility 10.0 miles
Clouds Clear
Dew Point 45 °F
Humidity 46%
Rainfall 0.00 in
Snow Depth Not available.
UV 6 out of 12
Pollen 4.30 out of 12
Air Quality Not available.
Flu Activity Sporadic
METAR KNBC 231556Z VRB05KT 10SM CLR 18/07 A3009 RMK AO2 SLP191 T01780072 $

More Conditions Fewer Conditions

Pressure 30.10 in
Visibility 10.0 miles
Clouds Clear
Dew Point 45 °F
Humidity 46%
Rainfall 0.00 in
Snow Depth Not available.
UV 6 out of 12
Pollen 4.30 out of 12
Air Quality Not available.
Flu Activity Sporadic
METAR KNBC 231556Z VRB05KT 10SM CLR 18/07 A3009 RMK AO2 SLP191 T01780072 $

More Conditions Fewer Conditions

10-Day Weather Forecast

Almanac

Astronomy

Oct. 23, 2014 Rise Set
Actual Time 7:33 AM EDT 6:41 PM EDT
Civil Twilight 7:07 AM EDT 7:06 PM EDT
Nautical Twilight 6:39 AM EDT 7:34 PM EDT
Astronomical Twilight 6:10 AM EDT 8:03 PM EDT
Moon 7:12 AM EDT 6:41 PM EDT
Length of Visible Light 11h 58m
Length of Day
11h 07m
Tomorrow will be 1m 52s shorter.
Waning Crescent, 0% of the Moon is Illuminated
Today
Waning Crescent
Oct 23
New
Oct 30
First Quarter
Nov 6
Full
Nov 14
Last Quarter

Today's Extremes

State Highs State Lows

Community

WunderPhotos

Upload Photos

1,764,308 photos uploaded!

WunderBlogs® & News

Nearby

Snow Depth

Station Depth Elevation
No new snow has been reported.

Earthquake Activity

City Distance Mag. Time & Date
No recent earthquake activity has been reported nearby.
Minimum magnitude displayed is 2.5.

Coastal Water Temperatures

Place Temperature
No Stations Reporting

Nearby Weather Stations